Time;durP1;ratioP1;P1;durP2;ratioP2;P2;SDS_P1;SDS_P2;PMS_P1;PMS_P2;Temp;Humidity;BMP_temperature;BMP_pressure;BME280_temperature;BME280_humidity;BME280_pressure;Samples;Min_cycle;Max_cycle;Signal;HPM_P1;HPM_P2
2022/02/12 00:00:00;;;;;;;;;;;0.00;99.90;;;;;;5073131;28;20375;-48
2022/02/12 00:02:26;;;;;;;;;;;-0.10;99.90;;;;;;5074300;28;19924;-49
2022/02/12 00:04:53;;;;;;;;;;;-0.20;99.90;;;;;;5067571;28;19971;-48
2022/02/12 00:07:21;;;;;;;;;;;-0.30;99.90;;;;;;5068228;28;20360;-49
2022/02/12 00:09:48;;;;;;;;;;;-0.40;99.90;;;;;;5054069;28;19978;-49
2022/02/12 00:12:15;;;;;;;;;;;-0.50;99.90;;;;;;5071116;28;20339;-48
2022/02/12 00:14:42;;;;;;;;;;;-0.30;99.90;;;;;;5073866;28;19951;-48
2022/02/12 00:17:09;;;;;;;;;;;-0.20;99.90;;;;;;5073161;28;19924;-49
2022/02/12 00:19:36;;;;;;;;;;;-0.30;99.90;;;;;;5053871;28;20353;-48
2022/02/12 00:22:02;;;;;;;;;;;-0.20;99.90;;;;;;5053944;28;19925;-50
2022/02/12 00:24:31;;;;;;;;;;;-0.30;99.90;;;;;;5059798;28;19934;-49
2022/02/12 00:26:57;;;;;;;;;;;-0.30;99.90;;;;;;5072342;28;19994;-50
2022/02/12 00:29:24;;;;;;;;;;;-0.40;99.90;;;;;;5056927;28;19932;-48
2022/02/12 00:31:51;;;;;;;;;;;-0.40;99.90;;;;;;5073479;28;19970;-49
2022/02/12 00:34:18;;;;;;;;;;;-0.20;99.90;;;;;;5073661;28;19924;-48
2022/02/12 00:36:44;;;;;;;;;;;-0.10;99.90;;;;;;5074037;28;19928;-49
2022/02/12 00:39:13;;;;;;;;;;;-0.20;99.90;;;;;;5071930;28;20275;-49
2022/02/12 00:41:41;;;;;;;;;;;-0.30;99.90;;;;;;5073623;28;19950;-50
2022/02/12 00:44:08;;;;;;;;;;;-0.20;99.90;;;;;;5073390;28;19978;-49
2022/02/12 00:46:35;;;;;;;;;;;-0.20;99.90;;;;;;5073253;28;20485;-49
2022/02/12 00:49:03;;;;;;;;;;;-0.30;99.90;;;;;;5073336;28;19924;-49
2022/02/12 00:51:30;;;;;;;;;;;-0.20;99.90;;;;;;5071586;28;19932;-50
2022/02/12 00:53:57;;;;;;;;;;;-0.20;99.90;;;;;;5066481;28;20379;-48
2022/02/12 00:56:23;;;;;;;;;;;-0.20;99.90;;;;;;5053417;28;19959;-49
2022/02/12 00:58:52;;;;;;;;;;;-0.30;99.90;;;;;;5053999;28;19929;-48
2022/02/12 01:01:19;;;;;;;;;;;-0.30;99.90;;;;;;5058614;28;20301;-48
2022/02/12 01:03:46;;;;;;;;;;;-0.30;99.90;;;;;;5064257;28;19928;-49
2022/02/12 01:06:13;;;;;;;;;;;-0.30;99.90;;;;;;5060593;28;19924;-48
2022/02/12 01:08:39;;;;;;;;;;;-0.30;99.90;;;;;;5056869;28;20394;-49
2022/02/12 01:11:06;;;;;;;;;;;-0.30;99.90;;;;;;5070499;28;19970;-49
2022/02/12 01:13:33;;;;;;;;;;;-0.30;99.90;;;;;;5072055;28;20340;-49
2022/02/12 01:16:01;;;;;;;;;;;-0.20;99.90;;;;;;5069717;28;19932;-49
2022/02/12 01:18:28;;;;;;;;;;;-0.10;99.90;;;;;;5052580;28;19955;-49
2022/02/12 01:20:54;;;;;;;;;;;-0.10;99.90;;;;;;5057647;28;19928;-49
2022/02/12 01:23:25;;;;;;;;;;;-0.20;99.90;;;;;;5060669;28;19979;-50
2022/02/12 01:25:51;;;;;;;;;;;0.00;99.90;;;;;;5053718;28;19925;-48
2022/02/12 01:28:18;;;;;;;;;;;-0.10;99.90;;;;;;5068718;28;19932;-49
2022/02/12 01:30:45;;;;;;;;;;;-0.30;99.90;;;;;;5054667;28;19928;-47
2022/02/12 01:33:17;;;;;;;;;;;-0.40;99.90;;;;;;5072181;28;19931;-49
2022/02/12 01:35:44;;;;;;;;;;;-0.60;99.90;;;;;;5060690;28;19924;-49
2022/02/12 01:38:11;;;;;;;;;;;-0.70;99.90;;;;;;5071857;28;19931;-50
2022/02/12 01:40:37;;;;;;;;;;;-0.80;99.90;;;;;;5071867;28;19924;-48
2022/02/12 01:43:07;;;;;;;;;;;-0.90;99.90;;;;;;5066840;28;20341;-50
2022/02/12 01:45:34;;;;;;;;;;;-0.90;99.90;;;;;;5052338;28;19951;-48
2022/02/12 01:48:01;;;;;;;;;;;-0.80;99.90;;;;;;5056946;28;20467;-49
2022/02/12 01:50:29;;;;;;;;;;;-0.70;99.90;;;;;;5059278;28;19925;-49
2022/02/12 01:52:56;;;;;;;;;;;-0.80;99.90;;;;;;5051946;28;20391;-47
2022/02/12 01:55:23;;;;;;;;;;;-0.80;99.90;;;;;;5053250;28;19929;-50
2022/02/12 01:57:49;;;;;;;;;;;-0.80;99.90;;;;;;5053222;28;19970;-48
2022/02/12 02:00:18;;;;;;;;;;;-0.90;99.90;;;;;;5052260;28;20310;-49
2022/02/12 02:02:44;;;;;;;;;;;-0.80;99.90;;;;;;5066612;28;19925;-49
2022/02/12 02:05:11;;;;;;;;;;;-0.80;99.90;;;;;;5066070;28;19978;-49
2022/02/12 02:07:40;;;;;;;;;;;-0.90;99.90;;;;;;5069821;28;19925;-49
2022/02/12 02:10:08;;;;;;;;;;;-1.00;99.90;;;;;;5071285;28;19924;-49
2022/02/12 02:12:35;;;;;;;;;;;-1.10;99.90;;;;;;5071370;28;20287;-49
2022/02/12 02:15:02;;;;;;;;;;;-1.20;99.90;;;;;;5066988;28;19925;-47
2022/02/12 02:17:29;;;;;;;;;;;-1.30;99.90;;;;;;5052082;28;19979;-49
2022/02/12 02:19:55;;;;;;;;;;;-1.30;99.90;;;;;;5051662;28;19955;-49
2022/02/12 02:22:25;;;;;;;;;;;-1.30;99.90;;;;;;5051581;28;19925;-49
2022/02/12 02:24:53;;;;;;;;;;;-1.40;99.90;;;;;;5057401;28;19925;-49
2022/02/12 02:27:21;;;;;;;;;;;-1.30;99.90;;;;;;5060070;28;19925;-48
2022/02/12 02:29:48;;;;;;;;;;;-1.30;99.90;;;;;;5052745;28;19971;-49
2022/02/12 02:32:17;;;;;;;;;;;-1.30;99.90;;;;;;5071533;28;19928;-48
2022/02/12 02:34:48;;;;;;;;;;;-1.40;99.90;;;;;;5071498;28;19925;-49
2022/02/12 02:37:15;;;;;;;;;;;-1.40;99.90;;;;;;5056356;28;19924;-48
2022/02/12 02:39:43;;;;;;;;;;;-1.40;99.90;;;;;;5050801;28;20585;-50
2022/02/12 02:42:12;;;;;;;;;;;-1.40;99.90;;;;;;5055901;28;19932;-49
2022/02/12 02:44:38;;;;;;;;;;;-1.40;99.90;;;;;;5071540;28;20105;-50
2022/02/12 02:47:32;;;;;;;;;;;-1.40;99.90;;;;;;5071247;28;19944;-49
2022/02/12 02:49:52;;;;;;;;;;;-1.40;99.90;;;;;;5071019;28;19964;-50
2022/02/12 02:57:48;;;;;;;;;;;-1.30;99.90;;;;;;5051886;28;20276;-48
2022/02/12 03:00:15;;;;;;;;;;;-1.20;99.90;;;;;;5051987;28;20088;-48
2022/02/12 03:02:42;;;;;;;;;;;-1.30;99.90;;;;;;5051391;28;19928;-49
2022/02/12 03:05:09;;;;;;;;;;;-1.40;99.90;;;;;;5052510;28;19929;-54
2022/02/12 03:07:35;;;;;;;;;;;-1.50;99.90;;;;;;5065168;28;19974;-50
2022/02/12 03:10:02;;;;;;;;;;;-1.60;99.90;;;;;;5068709;28;19925;-50
2022/02/12 03:12:29;;;;;;;;;;;-1.40;99.90;;;;;;5071137;28;19924;-50
2022/02/12 03:14:57;;;;;;;;;;;-1.40;99.90;;;;;;5070185;28;19928;-49
2022/02/12 03:17:24;;;;;;;;;;;-1.30;99.90;;;;;;5060272;28;19978;-48
2022/02/12 03:19:50;;;;;;;;;;;-1.40;99.90;;;;;;5063083;28;19925;-50
2022/02/12 03:22:18;;;;;;;;;;;-1.30;99.90;;;;;;5051165;28;19979;-50
2022/02/12 03:24:44;;;;;;;;;;;-1.30;99.90;;;;;;5051128;28;19971;-49
2022/02/12 03:27:12;;;;;;;;;;;-1.30;99.90;;;;;;5051057;28;20310;-50
2022/02/12 03:29:39;;;;;;;;;;;-1.40;99.90;;;;;;5051148;28;19924;-48
2022/02/12 03:32:07;;;;;;;;;;;-1.40;99.90;;;;;;5051167;28;20456;-49
2022/02/12 03:34:34;;;;;;;;;;;-1.40;99.90;;;;;;5064654;28;19986;-50
2022/02/12 03:37:01;;;;;;;;;;;-1.40;99.90;;;;;;5071218;28;19924;-50
2022/02/12 03:39:28;;;;;;;;;;;-1.40;99.90;;;;;;5070959;28;19970;-48
2022/02/12 03:41:54;;;;;;;;;;;-1.40;99.90;;;;;;5074937;28;20373;-50
2022/02/12 03:44:21;;;;;;;;;;;-1.40;99.90;;;;;;5074722;28;19970;-50
2022/02/12 03:46:48;;;;;;;;;;;-1.30;99.90;;;;;;5068806;28;19924;-50
2022/02/12 03:49:16;;;;;;;;;;;-1.20;99.90;;;;;;5054509;28;19959;-49
2022/02/12 03:51:43;;;;;;;;;;;-1.30;99.90;;;;;;5054566;28;19974;-49
2022/02/12 03:54:09;;;;;;;;;;;-1.30;99.90;;;;;;5054936;28;20412;-49
2022/02/12 03:56:36;;;;;;;;;;;-1.30;99.90;;;;;;5054413;28;19929;-50
2022/02/12 03:59:03;;;;;;;;;;;-1.30;99.90;;;;;;5054289;28;19925;-50
2022/02/12 04:01:30;;;;;;;;;;;-1.50;99.90;;;;;;5055349;28;19950;-49
2022/02/12 04:03:56;;;;;;;;;;;-1.50;99.90;;;;;;5060228;28;20013;-50
2022/02/12 04:06:24;;;;;;;;;;;-1.50;99.90;;;;;;5062677;28;19978;-49
2022/02/12 04:08:51;;;;;;;;;;;-1.50;99.90;;;;;;5073878;28;19940;-49
2022/02/12 04:11:20;;;;;;;;;;;-1.50;99.90;;;;;;5062068;28;19925;-49
2022/02/12 04:13:47;;;;;;;;;;;-1.50;99.90;;;;;;5057480;28;19931;-49
2022/02/12 04:16:15;;;;;;;;;;;-1.30;99.90;;;;;;5062678;28;19924;-48
2022/02/12 04:18:41;;;;;;;;;;;-1.30;99.90;;;;;;5073775;28;20015;-48
2022/02/12 04:21:08;;;;;;;;;;;-1.30;99.90;;;;;;5058232;28;20318;-50
2022/02/12 04:23:36;;;;;;;;;;;-1.30;99.90;;;;;;5053792;28;20383;-49
2022/02/12 04:26:05;;;;;;;;;;;-1.30;99.90;;;;;;5058558;28;20443;-48
2022/02/12 04:28:36;;;;;;;;;;;-1.30;99.90;;;;;;5073649;28;19924;-50
2022/02/12 04:31:03;;;;;;;;;;;-1.40;99.90;;;;;;5073831;28;20390;-50
2022/02/12 04:33:30;;;;;;;;;;;-1.60;99.90;;;;;;5056620;28;20010;-52
2022/02/12 04:35:56;;;;;;;;;;;-1.60;99.90;;;;;;5053566;28;19972;-50
2022/02/12 04:38:23;;;;;;;;;;;-1.70;99.90;;;;;;5053645;28;19979;-49
2022/02/12 04:40:51;;;;;;;;;;;-1.80;99.90;;;;;;5053519;28;20332;-49
2022/02/12 04:43:18;;;;;;;;;;;-1.90;99.90;;;;;;5072886;28;19972;-49
2022/02/12 04:45:45;;;;;;;;;;;-2.10;99.90;;;;;;5073489;28;19924;-49
2022/02/12 04:48:12;;;;;;;;;;;-2.10;99.90;;;;;;5073165;28;19970;-48
2022/02/12 04:50:39;;;;;;;;;;;-2.10;99.90;;;;;;5072863;28;19929;-50
2022/02/12 04:53:05;;;;;;;;;;;-2.20;99.90;;;;;;5073341;28;19925;-49
2022/02/12 04:55:32;;;;;;;;;;;-2.30;99.90;;;;;;5073480;28;19986;-49
2022/02/12 04:58:00;;;;;;;;;;;-2.20;99.90;;;;;;5073056;28;19924;-49
2022/02/12 05:00:27;;;;;;;;;;;-2.20;99.90;;;;;;5073088;28;20386;-50
2022/02/12 05:02:54;;;;;;;;;;;-2.20;99.90;;;;;;5073069;28;19924;-49
2022/02/12 05:05:20;;;;;;;;;;;-2.20;99.90;;;;;;5073112;28;19997;-49
2022/02/12 05:07:47;;;;;;;;;;;-2.20;99.90;;;;;;5071724;28;19929;-49
2022/02/12 05:10:14;;;;;;;;;;;-2.20;99.90;;;;;;5072680;28;19932;-50
2022/02/12 05:12:41;;;;;;;;;;;-2.20;99.90;;;;;;5073079;28;19928;-50
2022/02/12 05:15:09;;;;;;;;;;;-2.20;99.90;;;;;;5072660;28;20531;-49
2022/02/12 05:17:36;;;;;;;;;;;-2.20;99.90;;;;;;5073073;28;19978;-48
2022/02/12 05:20:04;;;;;;;;;;;-2.20;99.90;;;;;;5072605;28;19925;-49
2022/02/12 05:22:31;;;;;;;;;;;-2.20;99.90;;;;;;5072715;28;19925;-48
2022/02/12 05:24:58;;;;;;;;;;;-2.30;99.90;;;;;;5072778;28;19928;-49
2022/02/12 05:27:24;;;;;;;;;;;-2.30;99.90;;;;;;5055392;28;20462;-49
2022/02/12 05:29:51;;;;;;;;;;;-2.20;99.90;;;;;;5052405;28;19924;-48
2022/02/12 05:32:20;;;;;;;;;;;-2.20;99.90;;;;;;5052751;28;19925;-49
2022/02/12 05:34:46;;;;;;;;;;;-2.30;99.90;;;;;;5052392;28;19924;-48
2022/02/12 05:37:13;;;;;;;;;;;-2.40;99.90;;;;;;5062676;28;19929;-49
2022/02/12 05:39:40;;;;;;;;;;;-2.40;99.90;;;;;;5072198;28;20394;-48
2022/02/12 05:42:07;;;;;;;;;;;-2.50;99.90;;;;;;5072512;28;19928;-47
2022/02/12 05:44:34;;;;;;;;;;;-2.60;99.90;;;;;;5072246;28;19928;-49
2022/02/12 05:47:00;;;;;;;;;;;-2.60;99.90;;;;;;5072264;28;19970;-49
2022/02/12 05:49:28;;;;;;;;;;;-2.50;99.90;;;;;;5071400;28;19928;-48
2022/02/12 05:51:55;;;;;;;;;;;-2.50;99.90;;;;;;5071844;28;20327;-48
2022/02/12 05:54:22;;;;;;;;;;;-2.40;99.90;;;;;;5072137;28;19925;-49
2022/02/12 05:56:49;;;;;;;;;;;-2.40;99.90;;;;;;5071981;28;19970;-50
2022/02/12 05:59:18;;;;;;;;;;;-2.30;99.90;;;;;;5072035;28;19924;-49
2022/02/12 06:01:45;;;;;;;;;;;-2.40;99.90;;;;;;5072935;22;20560;-50
2022/02/12 06:04:12;;;;;;;;;;;-2.50;99.90;;;;;;5033873;28;19960;-51
2022/02/12 06:06:40;;;;;;;;;;;-2.70;99.90;;;;;;5034604;28;19929;-49
2022/02/12 06:09:07;;;;;;;;;;;-2.70;99.90;;;;;;5034127;28;19913;-51
2022/02/12 06:11:33;;;;;;;;;;;-2.80;99.90;;;;;;5034131;28;20008;-51
2022/02/12 06:14:00;;;;;;;;;;;-2.90;99.90;;;;;;5033992;28;20383;-51
2022/02/12 06:16:27;;;;;;;;;;;-2.80;99.90;;;;;;5033849;28;19925;-50
2022/02/12 06:18:54;;;;;;;;;;;-2.50;99.90;;;;;;5034548;28;19929;-51
2022/02/12 06:21:21;;;;;;;;;;;-2.40;99.90;;;;;;5028234;28;19975;-51
2022/02/12 06:23:50;;;;;;;;;;;-2.30;99.90;;;;;;5014335;28;19925;-50
2022/02/12 06:26:17;;;;;;;;;;;-2.20;99.90;;;;;;5022488;28;19971;-51
2022/02/12 06:28:43;;;;;;;;;;;-2.20;99.90;;;;;;5034209;28;19924;-50
2022/02/12 06:31:10;;;;;;;;;;;-2.20;99.90;;;;;;5033985;28;20461;-51
2022/02/12 06:33:37;;;;;;;;;;;-2.20;99.90;;;;;;5033947;28;19972;-50
2022/02/12 06:36:04;;;;;;;;;;;-2.20;99.90;;;;;;5033970;28;20391;-51
2022/02/12 06:38:31;;;;;;;;;;;-2.10;99.90;;;;;;5024425;28;19971;-50
2022/02/12 06:40:59;;;;;;;;;;;-2.10;99.90;;;;;;5025654;28;19925;-51
2022/02/12 06:43:26;;;;;;;;;;;-2.00;99.90;;;;;;5034362;28;19925;-51
2022/02/12 06:45:53;;;;;;;;;;;-2.20;99.90;;;;;;5037848;28;19925;-51
2022/02/12 06:48:20;;;;;;;;;;;-2.20;99.90;;;;;;5043183;28;19925;-51
2022/02/12 06:50:47;;;;;;;;;;;-2.10;99.90;;;;;;5034287;28;19933;-51
2022/02/12 06:53:14;;;;;;;;;;;-2.10;99.90;;;;;;5033076;28;20341;-51
2022/02/12 06:55:40;;;;;;;;;;;-2.00;99.90;;;;;;5036574;28;20027;-52
2022/02/12 06:58:08;;;;;;;;;;;-1.90;99.90;;;;;;5028973;28;20283;-52
2022/02/12 07:00:35;;;;;;;;;;;-1.90;99.90;;;;;;5033147;28;19925;-51
2022/02/12 07:03:02;;;;;;;;;;;-1.80;99.90;;;;;;5033860;28;19929;-51
2022/02/12 07:05:29;;;;;;;;;;;-1.80;99.90;;;;;;5033354;28;19971;-51
2022/02/12 07:07:56;;;;;;;;;;;-1.80;99.90;;;;;;5021526;28;20403;-51
2022/02/12 07:10:23;;;;;;;;;;;-1.80;99.90;;;;;;5028579;28;19925;-52
2022/02/12 07:12:50;;;;;;;;;;;-1.90;99.90;;;;;;5023495;28;19951;-51
2022/02/12 07:15:18;;;;;;;;;;;-1.80;99.90;;;;;;5025422;28;19925;-51
2022/02/12 07:17:44;;;;;;;;;;;-1.10;99.90;;;;;;5037266;28;20403;-52
2022/02/12 07:20:12;;;;;;;;;;;-0.40;99.90;;;;;;5028965;28;19925;-51
2022/02/12 07:22:40;;;;;;;;;;;0.00;99.90;;;;;;5036467;28;19987;-51
2022/02/12 07:25:08;;;;;;;;;;;0.10;99.90;;;;;;5029386;28;20387;-52
2022/02/12 07:27:38;;;;;;;;;;;-0.10;99.90;;;;;;5036667;28;19952;-51
2022/02/12 07:30:06;;;;;;;;;;;-0.20;99.90;;;;;;5020210;28;20379;-51
2022/02/12 07:32:34;;;;;;;;;;;-0.40;99.90;;;;;;5030596;28;19929;-51
2022/02/12 07:35:01;;;;;;;;;;;-0.50;99.90;;;;;;5036996;28;19925;-51
2022/02/12 07:37:27;;;;;;;;;;;-0.60;99.90;;;;;;5036847;28;19948;-52
2022/02/12 07:39:54;;;;;;;;;;;-0.70;99.90;;;;;;5036906;28;19925;-50
2022/02/12 07:42:21;;;;;;;;;;;-0.90;99.90;;;;;;5033892;28;19925;-52
2022/02/12 07:44:48;;;;;;;;;;;-0.80;99.90;;;;;;5037134;28;19971;-51
2022/02/12 07:47:15;;;;;;;;;;;-0.40;99.90;;;;;;5036530;28;19948;-51
2022/02/12 07:49:43;;;;;;;;;;;0.30;99.90;;;;;;5035743;28;19975;-52
2022/02/12 07:52:10;;;;;;;;;;;1.20;99.90;;;;;;5036062;28;19926;-52
2022/02/12 07:54:37;;;;;;;;;;;2.30;99.90;;;;;;5036878;28;20462;-51
2022/02/12 07:57:04;;;;;;;;;;;2.90;99.90;;;;;;5031079;28;20016;-52
2022/02/12 07:59:31;;;;;;;;;;;3.70;99.90;;;;;;5016673;28;19926;-51
2022/02/12 08:01:58;;;;;;;;;;;5.30;99.90;;;;;;5018361;28;19929;-52
2022/02/12 08:04:24;;;;;;;;;;;6.30;99.90;;;;;;5018829;28;20371;-51
2022/02/12 08:09:37;;;;;;;;;;;5.50;99.90;;;;;;5035386;28;19987;-51
2022/02/12 08:12:13;;;;;;;;;;;5.40;99.90;;;;;;5035982;28;19933;-51
2022/02/12 08:14:41;;;;;;;;;;;6.10;99.90;;;;;;5035092;28;19929;-51
2022/02/12 08:17:08;;;;;;;;;;;7.60;99.90;;;;;;5030329;28;20288;-52
2022/02/12 08:19:34;;;;;;;;;;;8.80;99.90;;;;;;5014506;28;19925;-53
2022/02/12 08:22:03;;;;;;;;;;;10.10;98.00;;;;;;5034898;28;19925;-52
2022/02/12 08:24:30;;;;;;;;;;;10.00;95.50;;;;;;5031040;28;19934;-52
2022/02/12 08:26:56;;;;;;;;;;;9.20;96.50;;;;;;5031580;28;19925;-53
2022/02/12 08:29:26;;;;;;;;;;;8.80;96.50;;;;;;5034912;28;19925;-50
2022/02/12 08:31:53;;;;;;;;;;;7.80;96.90;;;;;;5034715;28;20395;-50
2022/02/12 08:34:20;;;;;;;;;;;7.00;97.40;;;;;;5034948;28;19925;-51
2022/02/12 08:36:47;;;;;;;;;;;6.90;97.60;;;;;;5034992;28;20020;-51
2022/02/12 08:39:15;;;;;;;;;;;7.00;97.50;;;;;;5033419;28;20290;-51
2022/02/12 08:41:42;;;;;;;;;;;6.90;97.60;;;;;;5014573;28;20582;-51
2022/02/12 08:44:09;;;;;;;;;;;7.00;97.80;;;;;;5015062;28;19925;-51
2022/02/12 08:46:36;;;;;;;;;;;7.30;98.50;;;;;;5015176;28;19979;-54
2022/02/12 08:49:03;;;;;;;;;;;7.50;97.30;;;;;;5014832;28;20068;-51
2022/02/12 08:51:30;;;;;;;;;;;8.20;97.20;;;;;;5016890;28;19929;-50
2022/02/12 08:53:57;;;;;;;;;;;8.60;95.40;;;;;;5034854;28;19925;-51
2022/02/12 08:56:26;;;;;;;;;;;8.50;95.00;;;;;;5020768;28;19972;-51
2022/02/12 08:58:53;;;;;;;;;;;8.40;94.90;;;;;;5026447;28;19979;-51
2022/02/12 09:01:20;;;;;;;;;;;9.00;94.30;;;;;;5033887;28;20017;-51
2022/02/12 09:03:46;;;;;;;;;;;10.20;94.10;;;;;;5033531;28;19987;-52
2022/02/12 09:06:13;;;;;;;;;;;11.10;93.20;;;;;;5029419;28;19926;-53
2022/02/12 09:08:40;;;;;;;;;;;12.00;88.30;;;;;;5024442;28;19971;-52
2022/02/12 09:11:06;;;;;;;;;;;13.20;83.80;;;;;;5021842;28;19928;-52
2022/02/12 09:13:35;;;;;;;;;;;15.30;78.30;;;;;;5032785;28;20322;-59
2022/02/12 09:16:03;;;;;;;;;;;15.70;70.20;;;;;;5032503;28;19992;-54
2022/02/12 09:18:30;;;;;;;;;;;16.80;66.40;;;;;;5032625;28;19925;-52
2022/02/12 09:20:57;;;;;;;;;;;17.90;65.80;;;;;;5032448;28;19925;-53
2022/02/12 09:23:24;;;;;;;;;;;18.70;60.40;;;;;;5031266;28;19925;-53
2022/02/12 09:25:51;;;;;;;;;;;18.40;58.10;;;;;;5027932;28;19925;-51
2022/02/12 09:28:17;;;;;;;;;;;17.80;58.50;;;;;;5013969;28;19929;-52
2022/02/12 09:30:45;;;;;;;;;;;17.60;57.70;;;;;;5018842;28;19925;-53
2022/02/12 09:33:12;;;;;;;;;;;18.70;54.90;;;;;;5032535;28;20302;-53
2022/02/12 09:35:39;;;;;;;;;;;19.80;53.50;;;;;;5032117;28;19925;-53
2022/02/12 09:38:06;;;;;;;;;;;19.20;53.60;;;;;;5031293;28;19971;-52
2022/02/12 09:40:33;;;;;;;;;;;19.50;53.60;;;;;;5032065;28;19983;-53
2022/02/12 09:43:01;;;;;;;;;;;18.10;54.50;;;;;;5032587;28;19929;-52
2022/02/12 09:45:30;;;;;;;;;;;17.70;54.40;;;;;;5036888;28;19924;-53
2022/02/12 09:47:59;;;;;;;;;;;18.20;55.00;;;;;;5012429;28;19925;-52
2022/02/12 09:50:26;;;;;;;;;;;17.80;52.90;;;;;;5012376;28;19925;-53
2022/02/12 09:52:54;;;;;;;;;;;17.00;55.10;;;;;;5012406;28;19933;-54
2022/02/12 09:55:21;;;;;;;;;;;18.20;53.90;;;;;;5012368;28;19972;-53
2022/02/12 09:57:47;;;;;;;;;;;18.60;53.20;;;;;;5012410;28;19925;-54
2022/02/12 10:00:15;;;;;;;;;;;19.10;52.90;;;;;;5012340;28;19925;-52
2022/02/12 10:02:44;;;;;;;;;;;19.70;51.20;;;;;;5031776;28;20061;-53
2022/02/12 10:05:26;;;;;;;;;;;19.70;51.10;;;;;;5031891;28;19925;-54
2022/02/12 10:08:08;;;;;;;;;;;19.60;51.50;;;;;;5031718;28;20298;-54
2022/02/12 10:10:36;;;;;;;;;;;19.50;51.40;;;;;;5032034;28;19941;-53
2022/02/12 10:13:09;;;;;;;;;;;19.30;48.70;;;;;;5031640;28;20453;-53
2022/02/12 10:15:36;;;;;;;;;;;17.20;50.80;;;;;;5031799;28;19925;-53
2022/02/12 10:18:03;;;;;;;;;;;16.30;51.50;;;;;;5030751;28;19925;-52
2022/02/12 10:20:33;;;;;;;;;;;16.60;52.30;;;;;;5031984;28;19929;-52
2022/02/12 10:23:07;;;;;;;;;;;16.60;51.90;;;;;;5031721;28;19980;-54
2022/02/12 10:25:34;;;;;;;;;;;16.80;51.90;;;;;;5031779;28;19925;-53
2022/02/12 10:28:00;;;;;;;;;;;16.50;52.50;;;;;;5031519;28;20470;-53
2022/02/12 10:30:28;;;;;;;;;;;16.70;52.20;;;;;;5031600;28;19925;-52
2022/02/12 10:32:55;;;;;;;;;;;16.70;51.10;;;;;;5032028;28;19925;-52
2022/02/12 10:35:22;;;;;;;;;;;17.80;51.10;;;;;;5029979;28;19995;-53
2022/02/12 10:37:51;;;;;;;;;;;16.90;50.40;;;;;;5031415;28;20550;-54
2022/02/12 10:40:18;;;;;;;;;;;16.20;52.80;;;;;;5031400;28;20354;-52
2022/02/12 10:42:45;;;;;;;;;;;16.60;51.70;;;;;;5031579;28;19979;-53
2022/02/12 10:45:16;;;;;;;;;;;16.00;54.60;;;;;;5031679;28;19994;-52
2022/02/12 10:47:43;;;;;;;;;;;16.60;52.70;;;;;;5029837;28;19929;-52
2022/02/12 10:50:11;;;;;;;;;;;16.30;51.40;;;;;;5012971;28;19928;-51
2022/02/12 10:52:42;;;;;;;;;;;15.90;52.00;;;;;;5013284;28;19925;-52
2022/02/12 10:55:21;;;;;;;;;;;15.50;51.70;;;;;;5013469;28;19925;-51
2022/02/12 10:57:48;;;;;;;;;;;15.10;53.00;;;;;;5023186;28;19939;-53
2022/02/12 11:00:16;;;;;;;;;;;13.10;55.70;;;;;;5031543;28;20434;-51
2022/02/12 11:02:44;;;;;;;;;;;10.90;59.80;;;;;;5033131;28;19929;-51
2022/02/12 11:05:11;;;;;;;;;;;8.30;66.40;;;;;;5023437;28;19925;-52
2022/02/12 11:07:38;;;;;;;;;;;7.50;70.50;;;;;;5032309;28;19926;-52
2022/02/12 11:10:05;;;;;;;;;;;7.20;71.20;;;;;;5031224;28;20375;-52
2022/02/12 11:12:33;;;;;;;;;;;7.00;71.30;;;;;;5026061;28;20000;-53
2022/02/12 11:15:00;;;;;;;;;;;7.30;73.30;;;;;;5025706;28;19925;-53
2022/02/12 11:17:28;;;;;;;;;;;7.20;75.60;;;;;;5028296;28;19925;-52
2022/02/12 11:19:55;;;;;;;;;;;7.20;74.80;;;;;;5031738;28;19924;-52
2022/02/12 11:22:22;;;;;;;;;;;7.30;76.50;;;;;;5023029;28;20451;-51
2022/02/12 11:24:49;;;;;;;;;;;7.20;76.10;;;;;;5028912;28;19936;-52
2022/02/12 11:27:22;;;;;;;;;;;7.20;77.50;;;;;;5021119;28;20450;-52
2022/02/12 11:29:50;;;;;;;;;;;6.90;75.80;;;;;;5033055;28;19931;-51
2022/02/12 11:32:19;;;;;;;;;;;8.30;78.30;;;;;;5032519;28;19924;-52
2022/02/12 11:35:06;;;;;;;;;;;6.80;77.00;;;;;;5032878;28;19929;-51
2022/02/12 11:37:36;;;;;;;;;;;6.90;78.30;;;;;;5029037;28;20399;-52
2022/02/12 11:40:09;;;;;;;;;;;6.80;78.30;;;;;;5031532;28;19960;-51
2022/02/12 11:42:40;;;;;;;;;;;6.80;77.70;;;;;;5020396;28;19925;-51
2022/02/12 11:45:21;;;;;;;;;;;6.80;76.60;;;;;;5029342;28;19932;-52
2022/02/12 11:48:09;;;;;;;;;;;6.70;75.40;;;;;;5025924;28;19933;-52
2022/02/12 11:50:43;;;;;;;;;;;6.70;78.50;;;;;;5008552;28;19984;-52
2022/02/12 11:53:30;;;;;;;;;;;6.10;78.40;;;;;;5013160;28;19933;-52
2022/02/12 11:55:57;;;;;;;;;;;6.30;78.00;;;;;;5013065;28;20343;-51
2022/02/12 11:58:44;;;;;;;;;;;6.30;79.30;;;;;;5012959;28;19992;-52
2022/02/12 12:01:27;;;;;;;;;;;6.20;76.60;;;;;;5030049;28;19925;-54
2022/02/12 12:04:05;;;;;;;;;;;6.30;72.70;;;;;;5018512;28;20433;-52
2022/02/12 12:06:33;;;;;;;;;;;6.30;73.00;;;;;;5029200;28;20007;-51
2022/02/12 12:09:06;;;;;;;;;;;6.20;74.50;;;;;;5016470;28;20450;-51
2022/02/12 12:11:33;;;;;;;;;;;6.40;76.70;;;;;;5024516;28;19929;-49
2022/02/12 12:14:20;;;;;;;;;;;6.30;78.70;;;;;;5036000;28;19925;-51
2022/02/12 12:16:54;;;;;;;;;;;6.10;76.40;;;;;;5034487;28;20376;-51
2022/02/12 12:19:26;;;;;;;;;;;6.00;77.90;;;;;;5035607;28;19926;-52
2022/02/12 12:21:55;;;;;;;;;;;6.10;79.00;;;;;;5023127;28;20395;-50
2022/02/12 12:24:22;;;;;;;;;;;6.00;78.00;;;;;;5030560;28;20001;-50
2022/02/12 12:26:49;;;;;;;;;;;6.10;79.80;;;;;;5035332;28;19925;-51
2022/02/12 12:32:02;;;;;;;;;;;6.20;84.80;;;;;;5036154;28;20398;-51
2022/02/12 12:34:31;;;;;;;;;;;6.00;81.10;;;;;;5025645;28;20078;-52
2022/02/12 12:36:58;;;;;;;;;;;6.10;83.20;;;;;;5015948;28;19926;-52
2022/02/12 12:39:32;;;;;;;;;;;6.20;81.10;;;;;;5028855;28;20008;-51
2022/02/12 12:41:59;;;;;;;;;;;6.20;79.60;;;;;;5043021;28;19961;-52
2022/02/12 12:44:27;;;;;;;;;;;6.10;80.00;;;;;;5055913;28;19925;-51
2022/02/12 12:46:54;;;;;;;;;;;6.20;78.40;;;;;;5055785;28;19925;-51
2022/02/12 12:49:26;;;;;;;;;;;6.20;80.50;;;;;;5054703;28;19925;-52
2022/02/12 12:51:54;;;;;;;;;;;6.00;83.60;;;;;;5021966;28;19933;-51
2022/02/12 12:54:31;;;;;;;;;;;5.90;85.40;;;;;;5015718;28;19937;-50
2022/02/12 12:56:59;;;;;;;;;;;5.90;85.40;;;;;;5015411;28;20020;-50
2022/02/12 12:59:26;;;;;;;;;;;5.80;86.30;;;;;;5015823;28;19925;-51
2022/02/12 13:01:57;;;;;;;;;;;5.70;85.20;;;;;;5015403;28;19925;-52
2022/02/12 13:04:24;;;;;;;;;;;5.60;85.70;;;;;;5016974;28;19925;-51
2022/02/12 13:06:52;;;;;;;;;;;5.70;85.70;;;;;;5035539;28;19951;-51
2022/02/12 13:09:20;;;;;;;;;;;5.70;84.90;;;;;;5035172;28;19987;-52
2022/02/12 13:11:47;;;;;;;;;;;5.70;84.70;;;;;;5030884;28;19925;-53
2022/02/12 13:14:14;;;;;;;;;;;5.70;86.00;;;;;;5026172;28;19925;-51
2022/02/12 13:16:41;;;;;;;;;;;5.70;86.40;;;;;;5024953;28;19987;-51
2022/02/12 13:19:11;;;;;;;;;;;5.60;85.80;;;;;;5023506;28;20318;-51
2022/02/12 13:21:38;;;;;;;;;;;5.70;87.20;;;;;;5016056;28;19926;-52
2022/02/12 13:24:06;;;;;;;;;;;5.60;87.50;;;;;;5015432;28;19933;-53
2022/02/12 13:26:37;;;;;;;;;;;5.70;87.50;;;;;;5014334;28;20380;-51
2022/02/12 13:29:03;;;;;;;;;;;5.90;86.90;;;;;;5018605;28;19926;-53
2022/02/12 13:31:30;;;;;;;;;;;5.90;86.10;;;;;;5014450;28;19983;-52
2022/02/12 13:33:58;;;;;;;;;;;6.00;83.60;;;;;;5022030;28;19925;-51
2022/02/12 13:36:25;;;;;;;;;;;6.00;83.60;;;;;;5031326;28;19929;-51
2022/02/12 13:39:02;;;;;;;;;;;6.10;83.40;;;;;;5014814;28;19926;-52
2022/02/12 13:41:29;;;;;;;;;;;6.10;83.80;;;;;;5014680;28;20311;-52
2022/02/12 13:43:57;;;;;;;;;;;6.00;84.80;;;;;;5025361;28;19933;-51
2022/02/12 13:46:24;;;;;;;;;;;6.00;84.10;;;;;;5014496;28;20363;-51
2022/02/12 13:48:52;;;;;;;;;;;6.00;86.50;;;;;;5023830;28;19933;-51
2022/02/12 13:51:21;;;;;;;;;;;6.00;86.00;;;;;;5033250;28;19932;-50
2022/02/12 13:53:50;;;;;;;;;;;6.00;85.30;;;;;;5031324;28;20024;-51
2022/02/12 13:56:17;;;;;;;;;;;6.10;85.00;;;;;;5014337;28;19926;-51
2022/02/12 13:58:44;;;;;;;;;;;6.10;82.50;;;;;;5017934;28;19925;-52
2022/02/12 14:01:12;;;;;;;;;;;6.00;83.20;;;;;;5028203;28;19972;-52
2022/02/12 14:03:40;;;;;;;;;;;6.00;82.80;;;;;;5030041;28;19925;-50
2022/02/12 14:06:08;;;;;;;;;;;5.90;83.40;;;;;;5034302;28;19953;-50
2022/02/12 14:08:35;;;;;;;;;;;5.90;83.50;;;;;;5033394;28;19960;-50
2022/02/12 14:11:02;;;;;;;;;;;5.80;82.20;;;;;;5034053;28;19925;-50
2022/02/12 14:13:31;;;;;;;;;;;5.90;79.80;;;;;;5032945;28;20307;-50
2022/02/12 14:15:58;;;;;;;;;;;5.80;81.60;;;;;;5034412;28;20338;-49
2022/02/12 14:18:28;;;;;;;;;;;5.80;82.00;;;;;;5032254;28;20268;-50
2022/02/12 14:20:55;;;;;;;;;;;5.70;82.10;;;;;;5028143;28;19980;-51
2022/02/12 14:23:22;;;;;;;;;;;5.70;82.50;;;;;;5016993;28;19949;-51
2022/02/12 14:25:49;;;;;;;;;;;5.70;84.20;;;;;;5014975;28;19929;-52
2022/02/12 14:28:19;;;;;;;;;;;5.60;87.20;;;;;;5013917;28;19929;-50
2022/02/12 14:30:45;;;;;;;;;;;5.80;85.60;;;;;;5014249;28;19986;-50
2022/02/12 14:33:12;;;;;;;;;;;5.90;84.90;;;;;;5014201;28;19971;-50
2022/02/12 14:35:41;;;;;;;;;;;5.90;84.60;;;;;;5024970;28;19959;-50